sensor_id;sensor_type;location;lat;lon;timestamp;P1;durP1;ratioP1;P2;durP2;ratioP2
8268;SDS011;4174;48.304;16.364;2023-05-10T00:00:26;6.07;;;2.00;;
8268;SDS011;4174;48.304;16.364;2023-05-10T00:06:29;5.37;;;1.97;;
8268;SDS011;4174;48.304;16.364;2023-05-10T00:12:31;5.90;;;1.90;;
8268;SDS011;4174;48.304;16.364;2023-05-10T00:18:35;5.47;;;2.00;;
8268;SDS011;4174;48.304;16.364;2023-05-10T00:24:39;5.78;;;1.90;;
8268;SDS011;4174;48.304;16.364;2023-05-10T00:30:42;5.53;;;2.10;;
8268;SDS011;4174;48.304;16.364;2023-05-10T00:36:46;5.20;;;1.90;;
8268;SDS011;4174;48.304;16.364;2023-05-10T00:42:50;5.37;;;1.97;;
8268;SDS011;4174;48.304;16.364;2023-05-10T00:48:53;5.70;;;1.93;;
8268;SDS011;4174;48.304;16.364;2023-05-10T00:54:56;5.53;;;2.07;;
8268;SDS011;4174;48.304;16.364;2023-05-10T01:01:00;5.53;;;2.10;;
8268;SDS011;4174;48.304;16.364;2023-05-10T01:07:03;5.47;;;2.00;;
8268;SDS011;4174;48.304;16.364;2023-05-10T01:13:06;8.00;;;2.13;;
8268;SDS011;4174;48.304;16.364;2023-05-10T01:19:15;5.63;;;2.00;;
8268;SDS011;4174;48.304;16.364;2023-05-10T01:25:42;5.60;;;2.20;;
8268;SDS011;4174;48.304;16.364;2023-05-10T01:32:05;6.28;;;2.33;;
8268;SDS011;4174;48.304;16.364;2023-05-10T01:38:22;6.70;;;2.30;;
8268;SDS011;4174;48.304;16.364;2023-05-10T01:44:37;6.77;;;2.33;;
8268;SDS011;4174;48.304;16.364;2023-05-10T01:50:43;7.13;;;2.50;;
8268;SDS011;4174;48.304;16.364;2023-05-10T01:56:44;6.23;;;2.40;;
8268;SDS011;4174;48.304;16.364;2023-05-10T02:02:48;6.67;;;2.70;;
8268;SDS011;4174;48.304;16.364;2023-05-10T02:08:50;6.93;;;2.70;;
8268;SDS011;4174;48.304;16.364;2023-05-10T02:14:53;7.20;;;2.90;;
8268;SDS011;4174;48.304;16.364;2023-05-10T02:20:56;7.20;;;2.90;;
8268;SDS011;4174;48.304;16.364;2023-05-10T02:26:59;7.80;;;2.90;;
8268;SDS011;4174;48.304;16.364;2023-05-10T02:33:03;6.50;;;2.80;;
8268;SDS011;4174;48.304;16.364;2023-05-10T02:39:05;7.35;;;2.80;;
8268;SDS011;4174;48.304;16.364;2023-05-10T02:45:11;7.27;;;3.17;;
8268;SDS011;4174;48.304;16.364;2023-05-10T02:51:13;7.78;;;3.28;;
8268;SDS011;4174;48.304;16.364;2023-05-10T02:57:16;7.70;;;3.15;;
8268;SDS011;4174;48.304;16.364;2023-05-10T03:03:19;8.67;;;3.20;;
8268;SDS011;4174;48.304;16.364;2023-05-10T03:09:22;7.32;;;3.00;;
8268;SDS011;4174;48.304;16.364;2023-05-10T03:15:31;7.47;;;3.20;;
8268;SDS011;4174;48.304;16.364;2023-05-10T03:21:49;8.10;;;3.10;;
8268;SDS011;4174;48.304;16.364;2023-05-10T03:27:50;7.60;;;3.23;;
8268;SDS011;4174;48.304;16.364;2023-05-10T03:33:53;7.82;;;3.42;;
8268;SDS011;4174;48.304;16.364;2023-05-10T03:39:58;10.05;;;3.58;;
8268;SDS011;4174;48.304;16.364;2023-05-10T03:46:02;8.47;;;3.60;;
8268;SDS011;4174;48.304;16.364;2023-05-10T03:52:05;9.57;;;3.63;;
8268;SDS011;4174;48.304;16.364;2023-05-10T03:58:11;9.77;;;3.87;;
8268;SDS011;4174;48.304;16.364;2023-05-10T04:04:15;8.97;;;3.60;;
8268;SDS011;4174;48.304;16.364;2023-05-10T04:10:18;9.43;;;3.90;;
8268;SDS011;4174;48.304;16.364;2023-05-10T04:16:21;8.67;;;3.90;;
8268;SDS011;4174;48.304;16.364;2023-05-10T04:22:25;10.50;;;4.20;;
8268;SDS011;4174;48.304;16.364;2023-05-10T04:28:28;9.07;;;3.97;;
8268;SDS011;4174;48.304;16.364;2023-05-10T04:34:33;9.18;;;4.15;;
8268;SDS011;4174;48.304;16.364;2023-05-10T04:40:36;10.67;;;4.10;;
8268;SDS011;4174;48.304;16.364;2023-05-10T04:46:41;9.95;;;3.90;;
8268;SDS011;4174;48.304;16.364;2023-05-10T04:52:45;11.32;;;3.62;;
8268;SDS011;4174;48.304;16.364;2023-05-10T04:58:50;10.57;;;3.87;;
8268;SDS011;4174;48.304;16.364;2023-05-10T05:04:55;9.00;;;3.70;;
8268;SDS011;4174;48.304;16.364;2023-05-10T05:10:56;8.27;;;3.50;;
8268;SDS011;4174;48.304;16.364;2023-05-10T05:17:00;9.40;;;3.93;;
8268;SDS011;4174;48.304;16.364;2023-05-10T05:23:04;10.65;;;3.97;;
8268;SDS011;4174;48.304;16.364;2023-05-10T05:29:09;8.30;;;3.50;;
8268;SDS011;4174;48.304;16.364;2023-05-10T05:35:13;8.50;;;3.70;;
8268;SDS011;4174;48.304;16.364;2023-05-10T05:41:16;9.80;;;3.73;;
8268;SDS011;4174;48.304;16.364;2023-05-10T05:47:20;8.10;;;3.10;;
8268;SDS011;4174;48.304;16.364;2023-05-10T05:53:24;6.95;;;2.92;;
8268;SDS011;4174;48.304;16.364;2023-05-10T05:59:26;8.00;;;3.00;;
8268;SDS011;4174;48.304;16.364;2023-05-10T06:05:30;10.23;;;3.37;;
8268;SDS011;4174;48.304;16.364;2023-05-10T06:11:34;8.03;;;3.30;;
8268;SDS011;4174;48.304;16.364;2023-05-10T06:17:36;8.18;;;3.37;;
8268;SDS011;4174;48.304;16.364;2023-05-10T06:23:40;8.82;;;3.40;;
8268;SDS011;4174;48.304;16.364;2023-05-10T06:29:43;8.03;;;3.20;;
8268;SDS011;4174;48.304;16.364;2023-05-10T06:35:47;10.40;;;3.20;;
8268;SDS011;4174;48.304;16.364;2023-05-10T06:41:50;7.45;;;3.00;;
8268;SDS011;4174;48.304;16.364;2023-05-10T06:47:54;8.47;;;3.27;;
8268;SDS011;4174;48.304;16.364;2023-05-10T06:53:57;9.60;;;3.30;;
8268;SDS011;4174;48.304;16.364;2023-05-10T07:00:01;8.60;;;3.33;;
8268;SDS011;4174;48.304;16.364;2023-05-10T07:06:05;7.93;;;3.10;;
8268;SDS011;4174;48.304;16.364;2023-05-10T07:12:10;7.87;;;3.40;;
8268;SDS011;4174;48.304;16.364;2023-05-10T07:18:13;7.53;;;3.23;;
8268;SDS011;4174;48.304;16.364;2023-05-10T07:24:17;9.13;;;3.17;;
8268;SDS011;4174;48.304;16.364;2023-05-10T07:30:20;10.10;;;3.50;;
8268;SDS011;4174;48.304;16.364;2023-05-10T07:36:24;8.35;;;3.65;;
8268;SDS011;4174;48.304;16.364;2023-05-10T07:42:28;9.23;;;3.57;;
8268;SDS011;4174;48.304;16.364;2023-05-10T07:48:32;8.98;;;3.45;;
8268;SDS011;4174;48.304;16.364;2023-05-10T07:54:35;8.13;;;3.60;;
8268;SDS011;4174;48.304;16.364;2023-05-10T08:00:39;8.90;;;3.70;;
8268;SDS011;4174;48.304;16.364;2023-05-10T08:06:43;7.80;;;3.47;;
8268;SDS011;4174;48.304;16.364;2023-05-10T08:12:47;8.90;;;3.67;;
8268;SDS011;4174;48.304;16.364;2023-05-10T08:18:51;8.32;;;3.58;;
8268;SDS011;4174;48.304;16.364;2023-05-10T08:24:54;9.80;;;3.60;;
8268;SDS011;4174;48.304;16.364;2023-05-10T08:30:58;8.50;;;3.30;;
8268;SDS011;4174;48.304;16.364;2023-05-10T08:37:02;8.23;;;3.13;;
8268;SDS011;4174;48.304;16.364;2023-05-10T08:43:06;7.05;;;2.75;;
8268;SDS011;4174;48.304;16.364;2023-05-10T08:49:08;8.60;;;2.60;;
8268;SDS011;4174;48.304;16.364;2023-05-10T08:55:12;7.20;;;3.03;;
8268;SDS011;4174;48.304;16.364;2023-05-10T09:01:15;7.30;;;2.80;;
8268;SDS011;4174;48.304;16.364;2023-05-10T09:07:17;8.07;;;2.73;;
8268;SDS011;4174;48.304;16.364;2023-05-10T09:13:21;7.15;;;2.20;;
8268;SDS011;4174;48.304;16.364;2023-05-10T09:19:22;7.53;;;2.50;;
8268;SDS011;4174;48.304;16.364;2023-05-10T09:25:27;7.50;;;1.97;;
8268;SDS011;4174;48.304;16.364;2023-05-10T09:37:47;6.03;;;1.65;;
8268;SDS011;4174;48.304;16.364;2023-05-10T09:43:49;4.85;;;1.87;;
8268;SDS011;4174;48.304;16.364;2023-05-10T09:49:52;5.47;;;1.90;;
8268;SDS011;4174;48.304;16.364;2023-05-10T09:55:55;6.53;;;1.58;;
8268;SDS011;4174;48.304;16.364;2023-05-10T10:01:59;4.93;;;1.73;;
8268;SDS011;4174;48.304;16.364;2023-05-10T10:08:03;6.80;;;1.80;;
8268;SDS011;4174;48.304;16.364;2023-05-10T10:14:05;5.25;;;1.70;;
8268;SDS011;4174;48.304;16.364;2023-05-10T10:20:10;5.17;;;1.63;;
8268;SDS011;4174;48.304;16.364;2023-05-10T10:26:14;4.85;;;1.48;;
8268;SDS011;4174;48.304;16.364;2023-05-10T10:32:23;5.67;;;1.47;;
8268;SDS011;4174;48.304;16.364;2023-05-10T10:39:07;4.40;;;1.47;;
8268;SDS011;4174;48.304;16.364;2023-05-10T10:45:11;4.72;;;1.50;;
8268;SDS011;4174;48.304;16.364;2023-05-10T10:51:13;5.10;;;1.42;;
8268;SDS011;4174;48.304;16.364;2023-05-10T10:57:17;5.32;;;1.50;;
8268;SDS011;4174;48.304;16.364;2023-05-10T11:03:19;4.23;;;1.20;;
8268;SDS011;4174;48.304;16.364;2023-05-10T11:09:23;6.40;;;1.70;;
8268;SDS011;4174;48.304;16.364;2023-05-10T11:15:29;4.20;;;1.35;;
8268;SDS011;4174;48.304;16.364;2023-05-10T11:21:44;5.53;;;1.50;;
8268;SDS011;4174;48.304;16.364;2023-05-10T11:27:37;4.57;;;1.43;;
8268;SDS011;4174;48.304;16.364;2023-05-10T11:33:42;5.60;;;1.30;;
8268;SDS011;4174;48.304;16.364;2023-05-10T11:39:46;4.80;;;1.37;;
8268;SDS011;4174;48.304;16.364;2023-05-10T11:45:49;5.20;;;1.20;;
8268;SDS011;4174;48.304;16.364;2023-05-10T11:51:52;4.70;;;1.40;;
8268;SDS011;4174;48.304;16.364;2023-05-10T11:57:55;5.17;;;1.50;;
8268;SDS011;4174;48.304;16.364;2023-05-10T12:03:58;4.50;;;1.23;;
8268;SDS011;4174;48.304;16.364;2023-05-10T12:10:04;5.40;;;1.60;;
8268;SDS011;4174;48.304;16.364;2023-05-10T12:16:13;4.10;;;1.30;;
8268;SDS011;4174;48.304;16.364;2023-05-10T12:22:20;4.10;;;1.35;;
8268;SDS011;4174;48.304;16.364;2023-05-10T12:28:20;4.70;;;1.37;;
8268;SDS011;4174;48.304;16.364;2023-05-10T12:34:24;6.03;;;1.40;;
8268;SDS011;4174;48.304;16.364;2023-05-10T12:40:27;4.30;;;1.40;;
8268;SDS011;4174;48.304;16.364;2023-05-10T12:46:31;5.23;;;1.50;;
8268;SDS011;4174;48.304;16.364;2023-05-10T12:52:35;4.65;;;1.50;;
8268;SDS011;4174;48.304;16.364;2023-05-10T12:58:38;4.77;;;1.57;;
8268;SDS011;4174;48.304;16.364;2023-05-10T13:04:42;5.07;;;1.50;;
8268;SDS011;4174;48.304;16.364;2023-05-10T13:10:45;6.60;;;1.97;;
8268;SDS011;4174;48.304;16.364;2023-05-10T13:16:48;5.90;;;1.90;;
8268;SDS011;4174;48.304;16.364;2023-05-10T13:22:54;6.03;;;2.20;;
8268;SDS011;4174;48.304;16.364;2023-05-10T13:28:58;5.87;;;2.10;;
8268;SDS011;4174;48.304;16.364;2023-05-10T13:35:02;6.77;;;2.60;;
8268;SDS011;4174;48.304;16.364;2023-05-10T13:41:06;5.97;;;2.77;;
8268;SDS011;4174;48.304;16.364;2023-05-10T13:47:09;6.60;;;2.17;;
8268;SDS011;4174;48.304;16.364;2023-05-10T13:53:13;6.68;;;2.50;;
8268;SDS011;4174;48.304;16.364;2023-05-10T13:59:17;6.25;;;2.20;;
8268;SDS011;4174;48.304;16.364;2023-05-10T14:05:20;5.40;;;2.10;;
8268;SDS011;4174;48.304;16.364;2023-05-10T14:11:25;5.73;;;2.00;;
8268;SDS011;4174;48.304;16.364;2023-05-10T14:17:29;5.37;;;1.92;;
8268;SDS011;4174;48.304;16.364;2023-05-10T14:23:34;4.43;;;1.70;;
8268;SDS011;4174;48.304;16.364;2023-05-10T14:29:37;6.60;;;1.90;;
8268;SDS011;4174;48.304;16.364;2023-05-10T14:35:41;4.75;;;1.80;;
8268;SDS011;4174;48.304;16.364;2023-05-10T14:41:45;4.90;;;2.00;;
8268;SDS011;4174;48.304;16.364;2023-05-10T14:47:48;5.30;;;1.90;;
8268;SDS011;4174;48.304;16.364;2023-05-10T14:53:51;5.20;;;1.90;;
8268;SDS011;4174;48.304;16.364;2023-05-10T14:59:54;4.90;;;1.50;;
8268;SDS011;4174;48.304;16.364;2023-05-10T15:05:56;4.73;;;1.40;;
8268;SDS011;4174;48.304;16.364;2023-05-10T15:12:00;4.60;;;1.30;;
8268;SDS011;4174;48.304;16.364;2023-05-10T15:18:04;4.00;;;1.33;;
8268;SDS011;4174;48.304;16.364;2023-05-10T15:24:08;5.30;;;1.58;;
8268;SDS011;4174;48.304;16.364;2023-05-10T15:30:12;7.93;;;2.33;;
8268;SDS011;4174;48.304;16.364;2023-05-10T15:36:17;6.50;;;2.00;;
8268;SDS011;4174;48.304;16.364;2023-05-10T15:42:21;5.03;;;1.70;;
8268;SDS011;4174;48.304;16.364;2023-05-10T15:48:24;7.45;;;2.10;;
8268;SDS011;4174;48.304;16.364;2023-05-10T15:54:28;5.47;;;1.60;;
8268;SDS011;4174;48.304;16.364;2023-05-10T16:00:32;4.50;;;1.40;;
8268;SDS011;4174;48.304;16.364;2023-05-10T16:06:36;5.57;;;1.77;;
8268;SDS011;4174;48.304;16.364;2023-05-10T16:12:39;6.93;;;2.53;;
8268;SDS011;4174;48.304;16.364;2023-05-10T16:18:43;6.10;;;2.00;;
8268;SDS011;4174;48.304;16.364;2023-05-10T16:24:46;5.10;;;1.50;;
8268;SDS011;4174;48.304;16.364;2023-05-10T16:30:50;5.97;;;1.53;;
8268;SDS011;4174;48.304;16.364;2023-05-10T16:36:52;5.60;;;1.60;;
8268;SDS011;4174;48.304;16.364;2023-05-10T16:42:56;4.78;;;1.55;;
8268;SDS011;4174;48.304;16.364;2023-05-10T16:48:59;4.73;;;1.60;;
8268;SDS011;4174;48.304;16.364;2023-05-10T16:55:04;5.70;;;2.13;;
8268;SDS011;4174;48.304;16.364;2023-05-10T17:01:08;4.75;;;1.67;;
8268;SDS011;4174;48.304;16.364;2023-05-10T17:07:11;7.77;;;1.87;;
8268;SDS011;4174;48.304;16.364;2023-05-10T17:13:14;6.87;;;1.80;;
8268;SDS011;4174;48.304;16.364;2023-05-10T17:19:17;4.80;;;1.60;;
8268;SDS011;4174;48.304;16.364;2023-05-10T17:25:21;6.90;;;2.30;;
8268;SDS011;4174;48.304;16.364;2023-05-10T17:31:24;5.80;;;1.63;;
8268;SDS011;4174;48.304;16.364;2023-05-10T17:37:28;6.13;;;2.03;;
8268;SDS011;4174;48.304;16.364;2023-05-10T17:43:31;5.68;;;1.92;;
8268;SDS011;4174;48.304;16.364;2023-05-10T17:49:35;4.63;;;1.60;;
8268;SDS011;4174;48.304;16.364;2023-05-10T17:55:39;6.77;;;1.63;;
8268;SDS011;4174;48.304;16.364;2023-05-10T18:01:41;5.85;;;1.90;;
8268;SDS011;4174;48.304;16.364;2023-05-10T18:07:45;5.30;;;1.63;;
8268;SDS011;4174;48.304;16.364;2023-05-10T18:13:48;5.47;;;1.70;;
8268;SDS011;4174;48.304;16.364;2023-05-10T18:19:53;4.57;;;1.60;;
8268;SDS011;4174;48.304;16.364;2023-05-10T18:25:58;4.70;;;1.50;;
8268;SDS011;4174;48.304;16.364;2023-05-10T18:32:02;5.50;;;1.50;;
8268;SDS011;4174;48.304;16.364;2023-05-10T18:38:06;5.05;;;1.70;;
8268;SDS011;4174;48.304;16.364;2023-05-10T18:44:10;5.55;;;1.60;;
8268;SDS011;4174;48.304;16.364;2023-05-10T18:50:13;7.18;;;2.65;;
8268;SDS011;4174;48.304;16.364;2023-05-10T18:56:16;5.37;;;1.90;;
8268;SDS011;4174;48.304;16.364;2023-05-10T19:02:19;5.90;;;2.00;;
8268;SDS011;4174;48.304;16.364;2023-05-10T19:08:23;8.73;;;2.10;;
8268;SDS011;4174;48.304;16.364;2023-05-10T19:14:27;5.28;;;1.85;;
8268;SDS011;4174;48.304;16.364;2023-05-10T19:20:29;5.87;;;1.97;;
8268;SDS011;4174;48.304;16.364;2023-05-10T19:26:34;6.00;;;1.85;;
8268;SDS011;4174;48.304;16.364;2023-05-10T19:32:37;6.90;;;1.90;;
8268;SDS011;4174;48.304;16.364;2023-05-10T19:38:41;6.30;;;2.05;;
8268;SDS011;4174;48.304;16.364;2023-05-10T19:44:45;5.43;;;2.30;;
8268;SDS011;4174;48.304;16.364;2023-05-10T19:50:49;7.03;;;2.30;;
8268;SDS011;4174;48.304;16.364;2023-05-10T19:56:51;6.93;;;2.17;;
8268;SDS011;4174;48.304;16.364;2023-05-10T20:02:55;9.80;;;2.90;;
8268;SDS011;4174;48.304;16.364;2023-05-10T20:08:59;7.10;;;2.53;;
8268;SDS011;4174;48.304;16.364;2023-05-10T20:15:04;10.53;;;2.30;;
8268;SDS011;4174;48.304;16.364;2023-05-10T20:21:07;6.60;;;2.30;;
8268;SDS011;4174;48.304;16.364;2023-05-10T20:27:11;7.95;;;2.20;;
8268;SDS011;4174;48.304;16.364;2023-05-10T20:33:14;5.20;;;2.13;;
8268;SDS011;4174;48.304;16.364;2023-05-10T20:39:18;7.45;;;2.40;;
8268;SDS011;4174;48.304;16.364;2023-05-10T20:45:21;5.80;;;2.20;;
8268;SDS011;4174;48.304;16.364;2023-05-10T20:51:25;6.45;;;2.40;;
8268;SDS011;4174;48.304;16.364;2023-05-10T20:57:29;6.40;;;2.37;;
8268;SDS011;4174;48.304;16.364;2023-05-10T21:03:32;5.80;;;2.20;;
8268;SDS011;4174;48.304;16.364;2023-05-10T21:09:36;6.85;;;2.40;;
8268;SDS011;4174;48.304;16.364;2023-05-10T21:15:39;6.10;;;2.30;;
8268;SDS011;4174;48.304;16.364;2023-05-10T21:21:43;6.13;;;2.27;;
8268;SDS011;4174;48.304;16.364;2023-05-10T21:27:46;6.00;;;2.50;;
8268;SDS011;4174;48.304;16.364;2023-05-10T21:33:50;6.12;;;2.45;;
8268;SDS011;4174;48.304;16.364;2023-05-10T21:39:54;8.87;;;2.90;;
8268;SDS011;4174;48.304;16.364;2023-05-10T21:45:58;7.18;;;2.30;;
8268;SDS011;4174;48.304;16.364;2023-05-10T21:52:01;6.50;;;2.50;;
8268;SDS011;4174;48.304;16.364;2023-05-10T21:58:05;7.17;;;2.50;;
8268;SDS011;4174;48.304;16.364;2023-05-10T22:04:09;8.90;;;2.60;;
8268;SDS011;4174;48.304;16.364;2023-05-10T22:10:13;6.25;;;2.50;;
8268;SDS011;4174;48.304;16.364;2023-05-10T22:16:17;5.85;;;2.50;;
8268;SDS011;4174;48.304;16.364;2023-05-10T22:22:21;6.87;;;2.50;;
8268;SDS011;4174;48.304;16.364;2023-05-10T22:28:25;6.47;;;2.40;;
8268;SDS011;4174;48.304;16.364;2023-05-10T22:34:28;6.18;;;2.20;;
8268;SDS011;4174;48.304;16.364;2023-05-10T22:40:31;5.45;;;2.10;;
8268;SDS011;4174;48.304;16.364;2023-05-10T22:46:35;6.90;;;2.10;;
8268;SDS011;4174;48.304;16.364;2023-05-10T22:52:38;9.43;;;2.20;;
8268;SDS011;4174;48.304;16.364;2023-05-10T22:58:42;5.40;;;2.00;;
8268;SDS011;4174;48.304;16.364;2023-05-10T23:04:45;5.20;;;2.00;;
8268;SDS011;4174;48.304;16.364;2023-05-10T23:10:48;5.60;;;2.00;;
8268;SDS011;4174;48.304;16.364;2023-05-10T23:16:52;5.03;;;1.90;;
8268;SDS011;4174;48.304;16.364;2023-05-10T23:22:55;7.20;;;2.20;;
8268;SDS011;4174;48.304;16.364;2023-05-10T23:28:59;8.10;;;2.20;;
8268;SDS011;4174;48.304;16.364;2023-05-10T23:35:04;5.72;;;2.20;;
8268;SDS011;4174;48.304;16.364;2023-05-10T23:41:10;7.07;;;2.40;;
8268;SDS011;4174;48.304;16.364;2023-05-10T23:47:14;5.87;;;2.30;;
8268;SDS011;4174;48.304;16.364;2023-05-10T23:53:18;6.80;;;2.20;;
8268;SDS011;4174;48.304;16.364;2023-05-10T23:59:21;6.00;;;2.40;;
